• Join FlightAware (Why Join?)
  • Login
  • US Flag 
06:56AM EST


 

Airport Tracker/Info


-or-


 

Live Flight TrackerFlight Track Log ✈ ANO332 ✈ 12-May-2013 ✈ YPKU / KNX - YBRM / BME

Flight Track Log - Related Links

Times and Time Zones

All times are in EDT time to prevent confusion due to time zone crossing. See the ANO332 flight status page for this flight to view local times or setup timezone preferences in your user account.

Time Position Orientation Groundspeed Altitude Reporting Facility
EDT Latitude Longitude Course Direction KTS MPH feet Rate Location/Type
11:02PM -15.8921 128.4080 360° North 34,000  Level Aus ATC (Calculated)
11:02PM -15.8921 128.4080 248° West 34,000  Level Aus ATC (Calculated)
11:03PM -15.9212 128.3327 254° West 34,000  Level Aus ATC (Calculated)
11:05PM -15.9600 128.1901 254° West  Level FlightAware Approximate
11:06PM -15.9880 128.0870 254° West  Level FlightAware Approximate
11:06PM -16.0373 128.0314 248° West 34,000  Level Aus ATC (Calculated)
11:07PM -16.0662 127.9560 256° West 34,000  Level Aus ATC (Calculated)
11:09PM -16.1119 127.7671 256° West  Level FlightAware Approximate
11:09PM -16.1818 127.6542 248° West 34,000  Level Aus ATC (Calculated)
11:10PM -16.2106 127.5787 259° West 34,000  Level Aus ATC (Calculated)
11:12PM -16.2357 127.4490 259° West  Level FlightAware Approximate
11:12PM -16.2969 127.3521 360° North 34,000  Level Aus ATC (Calculated)
11:12PM -16.2969 127.3521 261° West 34,000  Level Aus ATC (Calculated)
11:14PM -16.3198 127.1946 261° West  Level FlightAware Approximate
11:14PM -16.3543 127.2009 280° West 34,000  Level Aus ATC (Calculated)
11:15PM -16.3352 127.0885 261° West  Level FlightAware Approximate
11:15PM -16.4402 126.9739 35° Northeast 34,000  Level Aus ATC (Calculated)
11:16PM -16.3717 127.0247 264° West  Level FlightAware Approximate
11:16PM -16.4687 126.8982 304° West 34,000  Level Aus ATC (Calculated)
11:17PM -16.4378 126.8504 271° West  Level FlightAware Approximate
11:18PM -16.4555 126.7395 275° West  Level FlightAware Approximate
11:19PM -16.4465 126.6325 275° West  Level FlightAware Approximate
11:19PM -16.5828 126.5952 314° West 34,000  Level Aus ATC (Calculated)
11:21PM -16.4700 126.4748 314° West  Level FlightAware Approximate
11:22PM -16.3980 126.3980 314° West  Level FlightAware Approximate
11:22PM -16.6964 126.2918 249° West 34,000  Level Aus ATC (Calculated)
11:23PM -16.7530 126.1400 249° West 34,000  Level Aus ATC (Calculated)
11:24PM -16.7813 126.0641 360° North 34,000  Level Aus ATC (Calculated)
11:24PM -16.7813 126.0641 45° Northeast 34,000  Level Aus ATC (Calculated)
11:26PM -16.6964 126.1529 45° Northeast  Level FlightAware Approximate
11:27PM -16.6236 126.2290 45° Northeast  Level FlightAware Approximate
11:28PM -16.5508 126.3050 45° Northeast  Level FlightAware Approximate
11:29PM -16.4779 126.3810 45° Northeast  Level FlightAware Approximate
11:29PM -16.9784 125.5319 57° Northeast 34,000  Level Aus ATC (Calculated)
11:30PM -16.4050 126.4569 45° Northeast  Level FlightAware Approximate
11:31PM -16.9140 125.6380 58° Northeast  Level FlightAware Approximate
11:32PM -16.9460 125.5356 244° Southwest  Level Estimated
11:33PM -16.9846 125.4358 248° West  Level FlightAware Approximate
11:33PM -17.1463 125.0748 64° Northeast 34,000  Level Aus ATC (Calculated)
11:34PM -17.0232 125.3359 248° West  Level FlightAware Approximate
11:34PM -17.2020 124.9223 69° East 34,000  Level Aus ATC (Calculated)
11:35PM -17.1929 124.9473 249° West  Level FlightAware Approximate
11:36PM -17.2454 124.8030 249° West  Level FlightAware Approximate
11:37PM -17.2821 124.7022 249° West  Level FlightAware Approximate
11:38PM -17.3187 124.6014 249° West  Level FlightAware Approximate
11:39PM -17.3553 124.5005 249° West  Level FlightAware Approximate
11:39PM -17.3961 124.3877 69° East 34,000  Level Aus ATC (Calculated)
11:40PM -17.3918 124.3996 249° West  Level FlightAware Approximate
11:41PM -17.4392 124.2682 249° West  Level FlightAware Approximate
11:42PM -17.4756 124.1672 249° West  Level FlightAware Approximate
11:42PM -17.4789 124.1582 249° West 34,000  Level Aus ATC (Calculated)
11:43PM -17.5120 124.0661 249° West  Level FlightAware Approximate
11:43PM -17.5339 124.0052 249° West 34,000  Level Aus ATC (Calculated)
11:45PM -17.5895 123.8501 249° West  Level FlightAware Approximate
11:45PM -17.5888 123.8520 257° West 400  Level Aus ATC (Calculated)
11:45PM -17.6115 123.7511 257° West 400  Level Aus ATC (Calculated)
11:46PM -17.6342 123.6503 77° East 400  Level Aus ATC (Calculated)
11:47PM -17.5858 123.8651 77° East  Level FlightAware Approximate
11:47PM -17.6568 123.5494 77° East 400  Level Aus ATC (Calculated)
11:48PM -17.5999 123.8028 77° East  Level FlightAware Approximate
11:48PM -17.6568 123.5494 77° East 400  Level Aus ATC (Calculated)
11:50PM -17.6167 123.7282 77° East  Level FlightAware Approximate
11:51PM -17.5930 123.8334 77° East  Level FlightAware Approximate
11:51PM -17.7244 123.2465 77° East 400  Level Aus ATC (Calculated)
11:53PM -17.6826 123.4342 77° East  Level FlightAware Approximate
11:53PM -17.7692 123.0444 257° West 400  Level Aus ATC (Calculated)
11:54PM -17.7915 122.9434 77° East 400  Level Aus ATC (Calculated)
11:56PM -17.7496 123.1331 77° East  Level FlightAware Approximate
11:57PM -17.7262 123.2384 77° East  Level FlightAware Approximate
11:57PM -17.8582 122.6401 143° Southeast 400  Level Aus ATC (Calculated)
11:57PM -17.8582 122.6401 77° East 400  Level Aus ATC (Calculated)
11:58PM -17.7028 123.3437 77° East  Level FlightAware Approximate
11:59PM -17.8986 122.4499 257° West  Level Estimated
12:00AM -17.9226 122.3447 257° West  Level FlightAware Approximate
12:00AM -17.9243 122.3365 360° North 400  Level Aus ATC (Calculated)
12:00AM -17.9243 122.3365 258° West 400  Level Aus ATC (Calculated)
12:02AM -17.9447 122.2317 257° West  Level Estimated
12:03AM -17.9447 122.2317 115° Southeast  Level Estimated
12:04AM -17.9447 122.2317 115° Southeast  Level Estimated
12:05AM -17.9447 122.2317 115° Southeast  Level Estimated
12:06AM -17.9447 122.2317 115° Southeast  Level Estimated
12:07AM -17.9447 122.2317 115° Southeast  Level Estimated
12:08AM -17.9447 122.2317 115° Southeast  Level Estimated
12:09AM -17.9463 122.2353 257° West  Level FlightAware Approximate
12:10AM -17.9447 122.2317 257° West  Level Estimated
12:11AM -17.9463 122.2353 257° West  Level FlightAware Approximate
12:12AM -17.9447 122.2317 257° West  Level Estimated
12:13AM -17.9463 122.2353 257° West  Level FlightAware Approximate
12:14AM -17.9447 122.2317 257° West  Level Estimated
12:15AM -17.9463 122.2353 257° West  Level FlightAware Approximate
12:16AM -17.9447 122.2317 257° West  Level Estimated
12:17AM -17.9463 122.2353 257° West  Level FlightAware Approximate
12:18AM -17.9447 122.2317 257° West  Level Estimated
12:19AM -17.9463 122.2353 257° West  Level FlightAware Approximate
12:20AM -17.9447 122.2317 257° West  Level Estimated